sensor_id;sensor_type;location;lat;lon;timestamp;temperature;humidity
65707;SHT31;52423;43.512;5.220;2023-04-01T00:00:04;12.01;67.93
65707;SHT31;52423;43.512;5.220;2023-04-01T00:02:30;12.13;66.96
65707;SHT31;52423;43.512;5.220;2023-04-01T00:04:56;12.24;66.79
65707;SHT31;52423;43.512;5.220;2023-04-01T00:07:21;12.21;66.82
65707;SHT31;52423;43.512;5.220;2023-04-01T00:09:47;12.13;66.74
65707;SHT31;52423;43.512;5.220;2023-04-01T00:12:12;11.94;67.71
65707;SHT31;52423;43.512;5.220;2023-04-01T00:14:38;12.05;67.88
65707;SHT31;52423;43.512;5.220;2023-04-01T00:17:04;12.10;66.93
65707;SHT31;52423;43.512;5.220;2023-04-01T00:19:30;11.95;68.37
65707;SHT31;52423;43.512;5.220;2023-04-01T00:21:57;12.01;67.43
65707;SHT31;52423;43.512;5.220;2023-04-01T00:24:24;11.86;67.60
65707;SHT31;52423;43.512;5.220;2023-04-01T00:26:50;11.90;67.65
65707;SHT31;52423;43.512;5.220;2023-04-01T00:29:15;11.84;68.61
65707;SHT31;52423;43.512;5.220;2023-04-01T00:31:40;11.70;69.19
65707;SHT31;52423;43.512;5.220;2023-04-01T00:34:06;11.43;69.80
65707;SHT31;52423;43.512;5.220;2023-04-01T00:36:31;11.44;69.90
65707;SHT31;52423;43.512;5.220;2023-04-01T00:38:57;11.22;70.09
65707;SHT31;52423;43.512;5.220;2023-04-01T00:41:24;11.07;70.28
65707;SHT31;52423;43.512;5.220;2023-04-01T00:43:51;11.05;70.41
65707;SHT31;52423;43.512;5.220;2023-04-01T00:46:17;11.15;70.19
65707;SHT31;52423;43.512;5.220;2023-04-01T00:48:54;11.16;70.80
65707;SHT31;52423;43.512;5.220;2023-04-01T00:51:24;11.16;70.62
65707;SHT31;52423;43.512;5.220;2023-04-01T00:53:52;11.36;69.20
65707;SHT31;52423;43.512;5.220;2023-04-01T00:56:27;11.32;69.87
65707;SHT31;52423;43.512;5.220;2023-04-01T00:59:04;11.29;69.07
65707;SHT31;52423;43.512;5.220;2023-04-01T01:01:34;11.25;68.38
65707;SHT31;52423;43.512;5.220;2023-04-01T01:04:00;11.36;67.97
65707;SHT31;52423;43.512;5.220;2023-04-01T01:12:16;11.08;67.45
65707;SHT31;52423;43.512;5.220;2023-04-01T01:14:56;11.14;67.12
65707;SHT31;52423;43.512;5.220;2023-04-01T01:17:33;10.91;68.53
65707;SHT31;52423;43.512;5.220;2023-04-01T01:23:16;10.90;68.07
65707;SHT31;52423;43.512;5.220;2023-04-01T01:26:19;10.84;67.33
65707;SHT31;52423;43.512;5.220;2023-04-01T01:34:55;10.42;68.79
65707;SHT31;52423;43.512;5.220;2023-04-01T01:37:25;10.36;68.25
65707;SHT31;52423;43.512;5.220;2023-04-01T01:39:57;10.47;69.21
65707;SHT31;52423;43.512;5.220;2023-04-01T01:42:25;10.49;68.67
65707;SHT31;52423;43.512;5.220;2023-04-01T01:44:52;10.46;68.85
65707;SHT31;52423;43.512;5.220;2023-04-01T01:47:19;10.44;67.79
65707;SHT31;52423;43.512;5.220;2023-04-01T01:49:45;10.28;68.52
65707;SHT31;52423;43.512;5.220;2023-04-01T01:52:12;10.44;68.01
65707;SHT31;52423;43.512;5.220;2023-04-01T01:54:53;10.36;67.72
65707;SHT31;52423;43.512;5.220;2023-04-01T01:57:28;10.34;68.02
65707;SHT31;52423;43.512;5.220;2023-04-01T01:59:58;10.29;68.66
65707;SHT31;52423;43.512;5.220;2023-04-01T02:02:26;10.34;67.13
65707;SHT31;52423;43.512;5.220;2023-04-01T02:04:52;10.30;67.42
65707;SHT31;52423;43.512;5.220;2023-04-01T02:07:27;10.23;68.45
65707;SHT31;52423;43.512;5.220;2023-04-01T02:09:53;10.26;68.09
65707;SHT31;52423;43.512;5.220;2023-04-01T02:12:21;10.24;68.32
65707;SHT31;52423;43.512;5.220;2023-04-01T02:17:21;10.28;68.57
65707;SHT31;52423;43.512;5.220;2023-04-01T02:19:53;10.29;67.70
65707;SHT31;52423;43.512;5.220;2023-04-01T02:22:25;10.40;67.47
65707;SHT31;52423;43.512;5.220;2023-04-01T02:24:58;10.36;67.66
65707;SHT31;52423;43.512;5.220;2023-04-01T02:27:24;10.29;68.17
65707;SHT31;52423;43.512;5.220;2023-04-01T02:29:51;10.51;67.21
65707;SHT31;52423;43.512;5.220;2023-04-01T02:32:18;10.37;68.64
65707;SHT31;52423;43.512;5.220;2023-04-01T02:34:44;10.33;67.95
65707;SHT31;52423;43.512;5.220;2023-04-01T02:37:11;10.34;66.76
65707;SHT31;52423;43.512;5.220;2023-04-01T02:39:37;10.49;67.20
65707;SHT31;52423;43.512;5.220;2023-04-01T02:42:02;10.24;67.60
65707;SHT31;52423;43.512;5.220;2023-04-01T02:44:28;10.01;67.59
65707;SHT31;52423;43.512;5.220;2023-04-01T02:46:53;10.16;67.61
65707;SHT31;52423;43.512;5.220;2023-04-01T02:49:19;10.24;68.71
65707;SHT31;52423;43.512;5.220;2023-04-01T02:51:44;9.93;68.26
65707;SHT31;52423;43.512;5.220;2023-04-01T02:54:10;9.99;67.89
65707;SHT31;52423;43.512;5.220;2023-04-01T02:56:35;9.88;67.37
65707;SHT31;52423;43.512;5.220;2023-04-01T02:59:00;9.98;67.45
65707;SHT31;52423;43.512;5.220;2023-04-01T03:01:26;10.02;68.44
65707;SHT31;52423;43.512;5.220;2023-04-01T03:03:51;9.92;67.74
65707;SHT31;52423;43.512;5.220;2023-04-01T03:06:17;9.83;68.29
65707;SHT31;52423;43.512;5.220;2023-04-01T03:08:43;9.88;68.83
65707;SHT31;52423;43.512;5.220;2023-04-01T03:11:09;10.08;67.83
65707;SHT31;52423;43.512;5.220;2023-04-01T03:13:35;9.83;68.84
65707;SHT31;52423;43.512;5.220;2023-04-01T03:16:01;10.09;68.21
65707;SHT31;52423;43.512;5.220;2023-04-01T03:18:26;10.01;69.18
65707;SHT31;52423;43.512;5.220;2023-04-01T03:20:52;10.13;69.41
65707;SHT31;52423;43.512;5.220;2023-04-01T03:23:17;10.20;68.78
65707;SHT31;52423;43.512;5.220;2023-04-01T03:25:44;10.12;69.02
65707;SHT31;52423;43.512;5.220;2023-04-01T03:28:10;10.13;69.32
65707;SHT31;52423;43.512;5.220;2023-04-01T03:30:35;10.23;69.34
65707;SHT31;52423;43.512;5.220;2023-04-01T03:33:02;10.36;68.69
65707;SHT31;52423;43.512;5.220;2023-04-01T03:35:27;10.51;68.46
65707;SHT31;52423;43.512;5.220;2023-04-01T03:37:53;10.57;68.41
65707;SHT31;52423;43.512;5.220;2023-04-01T03:40:19;10.53;68.35
65707;SHT31;52423;43.512;5.220;2023-04-01T03:42:45;10.75;67.42
65707;SHT31;52423;43.512;5.220;2023-04-01T03:45:11;10.94;67.06
65707;SHT31;52423;43.512;5.220;2023-04-01T03:47:37;11.10;66.96
65707;SHT31;52423;43.512;5.220;2023-04-01T03:50:04;11.29;66.33
65707;SHT31;52423;43.512;5.220;2023-04-01T03:52:29;11.44;66.18
65707;SHT31;52423;43.512;5.220;2023-04-01T03:54:55;11.58;65.68
65707;SHT31;52423;43.512;5.220;2023-04-01T03:57:20;11.70;65.22
65707;SHT31;52423;43.512;5.220;2023-04-01T03:59:46;11.67;65.38
65707;SHT31;52423;43.512;5.220;2023-04-01T04:02:11;11.69;65.04
65707;SHT31;52423;43.512;5.220;2023-04-01T04:04:36;11.89;64.23
65707;SHT31;52423;43.512;5.220;2023-04-01T04:07:02;11.80;64.47
65707;SHT31;52423;43.512;5.220;2023-04-01T04:09:27;11.82;63.92
65707;SHT31;52423;43.512;5.220;2023-04-01T04:11:54;11.83;64.03
65707;SHT31;52423;43.512;5.220;2023-04-01T04:14:20;11.84;63.81
65707;SHT31;52423;43.512;5.220;2023-04-01T04:16:45;11.91;63.62
65707;SHT31;52423;43.512;5.220;2023-04-01T04:19:10;11.94;63.05
65707;SHT31;52423;43.512;5.220;2023-04-01T04:21:36;11.97;63.26
65707;SHT31;52423;43.512;5.220;2023-04-01T04:24:02;11.97;63.38
65707;SHT31;52423;43.512;5.220;2023-04-01T04:26:27;12.00;63.61
65707;SHT31;52423;43.512;5.220;2023-04-01T04:28:53;12.01;63.16
65707;SHT31;52423;43.512;5.220;2023-04-01T04:31:21;12.04;63.42
65707;SHT31;52423;43.512;5.220;2023-04-01T04:33:47;12.04;63.05
65707;SHT31;52423;43.512;5.220;2023-04-01T04:36:12;12.00;63.62
65707;SHT31;52423;43.512;5.220;2023-04-01T04:38:38;12.04;63.24
65707;SHT31;52423;43.512;5.220;2023-04-01T04:41:03;12.11;62.10
65707;SHT31;52423;43.512;5.220;2023-04-01T04:43:33;12.08;62.78
65707;SHT31;52423;43.512;5.220;2023-04-01T04:45:58;12.05;62.14
65707;SHT31;52423;43.512;5.220;2023-04-01T04:48:23;12.13;62.07
65707;SHT31;52423;43.512;5.220;2023-04-01T04:50:50;12.10;62.45
65707;SHT31;52423;43.512;5.220;2023-04-01T04:53:19;12.10;62.86
65707;SHT31;52423;43.512;5.220;2023-04-01T04:55:49;12.11;62.51
65707;SHT31;52423;43.512;5.220;2023-04-01T04:58:15;12.04;62.56
65707;SHT31;52423;43.512;5.220;2023-04-01T05:00:41;12.14;62.28
65707;SHT31;52423;43.512;5.220;2023-04-01T05:03:06;12.07;62.42
65707;SHT31;52423;43.512;5.220;2023-04-01T05:05:32;11.95;62.80
65707;SHT31;52423;43.512;5.220;2023-04-01T05:07:57;12.03;61.98
65707;SHT31;52423;43.512;5.220;2023-04-01T05:10:23;12.05;61.55
65707;SHT31;52423;43.512;5.220;2023-04-01T05:12:48;12.11;62.00
65707;SHT31;52423;43.512;5.220;2023-04-01T05:15:13;12.04;62.29
65707;SHT31;52423;43.512;5.220;2023-04-01T05:17:40;11.94;62.76
65707;SHT31;52423;43.512;5.220;2023-04-01T05:20:06;11.83;63.84
65707;SHT31;52423;43.512;5.220;2023-04-01T05:22:32;11.77;64.05
65707;SHT31;52423;43.512;5.220;2023-04-01T05:24:57;11.74;64.28
65707;SHT31;52423;43.512;5.220;2023-04-01T05:27:22;11.76;64.46
65707;SHT31;52423;43.512;5.220;2023-04-01T05:29:48;11.73;64.44
65707;SHT31;52423;43.512;5.220;2023-04-01T05:32:13;11.72;64.10
65707;SHT31;52423;43.512;5.220;2023-04-01T05:34:39;11.65;65.36
65707;SHT31;52423;43.512;5.220;2023-04-01T05:37:04;11.66;65.53
65707;SHT31;52423;43.512;5.220;2023-04-01T05:39:29;11.46;65.36
65707;SHT31;52423;43.512;5.220;2023-04-01T05:41:55;11.52;66.01
65707;SHT31;52423;43.512;5.220;2023-04-01T05:44:20;11.55;65.87
65707;SHT31;52423;43.512;5.220;2023-04-01T05:46:45;11.66;65.78
65707;SHT31;52423;43.512;5.220;2023-04-01T05:49:11;11.66;66.42
65707;SHT31;52423;43.512;5.220;2023-04-01T05:51:36;11.63;66.03
65707;SHT31;52423;43.512;5.220;2023-04-01T05:54:04;11.63;66.91
65707;SHT31;52423;43.512;5.220;2023-04-01T05:56:30;11.65;66.54
65707;SHT31;52423;43.512;5.220;2023-04-01T05:58:55;11.66;66.61
65707;SHT31;52423;43.512;5.220;2023-04-01T06:01:21;11.82;66.16
65707;SHT31;52423;43.512;5.220;2023-04-01T06:03:46;11.79;64.85
65707;SHT31;52423;43.512;5.220;2023-04-01T06:06:17;11.84;65.87
65707;SHT31;52423;43.512;5.220;2023-04-01T06:08:44;11.84;65.81
65707;SHT31;52423;43.512;5.220;2023-04-01T06:22:43;12.13;64.32
65707;SHT31;52423;43.512;5.220;2023-04-01T06:36:00;12.63;63.56
65707;SHT31;52423;43.512;5.220;2023-04-01T06:41:58;12.85;63.13
65707;SHT31;52423;43.512;5.220;2023-04-01T06:49:44;13.00;62.46
65707;SHT31;52423;43.512;5.220;2023-04-01T06:55:09;12.96;62.61
65707;SHT31;52423;43.512;5.220;2023-04-01T06:57:47;12.92;62.38
65707;SHT31;52423;43.512;5.220;2023-04-01T07:02:47;12.85;62.99
65707;SHT31;52423;43.512;5.220;2023-04-01T07:05:19;12.93;62.93
65707;SHT31;52423;43.512;5.220;2023-04-01T07:07:48;12.95;63.35
65707;SHT31;52423;43.512;5.220;2023-04-01T07:10:22;13.00;62.77
65707;SHT31;52423;43.512;5.220;2023-04-01T07:13:00;12.96;62.30
65707;SHT31;52423;43.512;5.220;2023-04-01T07:15:33;12.93;62.79
65707;SHT31;52423;43.512;5.220;2023-04-01T07:18:04;12.99;62.70
65707;SHT31;52423;43.512;5.220;2023-04-01T07:20:32;13.23;62.80
65707;SHT31;52423;43.512;5.220;2023-04-01T07:23:04;13.40;62.50
65707;SHT31;52423;43.512;5.220;2023-04-01T07:25:34;13.50;61.50
65707;SHT31;52423;43.512;5.220;2023-04-01T07:28:03;13.63;61.82
65707;SHT31;52423;43.512;5.220;2023-04-01T07:36:17;13.40;61.55
65707;SHT31;52423;43.512;5.220;2023-04-01T07:47:01;13.37;61.62
65707;SHT31;52423;43.512;5.220;2023-04-01T07:55:29;13.53;61.99
65707;SHT31;52423;43.512;5.220;2023-04-01T07:58:17;13.68;60.23
65707;SHT31;52423;43.512;5.220;2023-04-01T08:04:20;13.72;60.68
65707;SHT31;52423;43.512;5.220;2023-04-01T08:12:34;13.70;60.19
65707;SHT31;52423;43.512;5.220;2023-04-01T08:18:09;13.77;61.59
65707;SHT31;52423;43.512;5.220;2023-04-01T08:20:41;13.84;62.09
65707;SHT31;52423;43.512;5.220;2023-04-01T08:23:14;13.85;61.26
65707;SHT31;52423;43.512;5.220;2023-04-01T08:26:06;14.13;60.25
65707;SHT31;52423;43.512;5.220;2023-04-01T08:28:43;14.49;60.16
65707;SHT31;52423;43.512;5.220;2023-04-01T08:31:18;14.49;58.84
65707;SHT31;52423;43.512;5.220;2023-04-01T08:33:46;14.42;58.75
65707;SHT31;52423;43.512;5.220;2023-04-01T08:36:18;14.62;58.59
65707;SHT31;52423;43.512;5.220;2023-04-01T08:50:01;14.79;56.61
65707;SHT31;52423;43.512;5.220;2023-04-01T08:53:00;14.95;57.34
65707;SHT31;52423;43.512;5.220;2023-04-01T08:56:17;15.03;56.41
65707;SHT31;52423;43.512;5.220;2023-04-01T09:15:49;15.65;54.76
65707;SHT31;52423;43.512;5.220;2023-04-01T09:26:42;15.94;55.11
65707;SHT31;52423;43.512;5.220;2023-04-01T09:29:40;15.99;53.11
65707;SHT31;52423;43.512;5.220;2023-04-01T09:40:37;15.72;51.55
65707;SHT31;52423;43.512;5.220;2023-04-01T09:46:37;15.69;51.83
65707;SHT31;52423;43.512;5.220;2023-04-01T09:56:59;15.51;55.22
65707;SHT31;52423;43.512;5.220;2023-04-01T10:05:22;15.70;54.03
65707;SHT31;52423;43.512;5.220;2023-04-01T10:55:28;16.48;51.88
65707;SHT31;52423;43.512;5.220;2023-04-01T10:58:11;16.45;51.67
65707;SHT31;52423;43.512;5.220;2023-04-01T11:04:17;16.34;51.07
65707;SHT31;52423;43.512;5.220;2023-04-01T11:15:48;16.50;50.98
65707;SHT31;52423;43.512;5.220;2023-04-01T11:18:35;16.57;51.04
65707;SHT31;52423;43.512;5.220;2023-04-01T11:27:41;16.23;51.45
65707;SHT31;52423;43.512;5.220;2023-04-01T11:35:53;16.50;51.78
65707;SHT31;52423;43.512;5.220;2023-04-01T11:41:41;17.15;50.12
65707;SHT31;52423;43.512;5.220;2023-04-01T11:44:23;17.42;48.77
65707;SHT31;52423;43.512;5.220;2023-04-01T11:52:30;17.50;48.14
65707;SHT31;52423;43.512;5.220;2023-04-01T11:55:22;18.12;48.30
65707;SHT31;52423;43.512;5.220;2023-04-01T12:03:33;18.12;46.09
65707;SHT31;52423;43.512;5.220;2023-04-01T12:16:59;18.56;44.95
65707;SHT31;52423;43.512;5.220;2023-04-01T12:19:47;18.01;45.63
65707;SHT31;52423;43.512;5.220;2023-04-01T12:39:12;17.42;46.70
65707;SHT31;52423;43.512;5.220;2023-04-01T12:42:11;17.26;46.43
65707;SHT31;52423;43.512;5.220;2023-04-01T12:45:18;17.67;46.85
65707;SHT31;52423;43.512;5.220;2023-04-01T12:50:37;18.56;44.06
65707;SHT31;52423;43.512;5.220;2023-04-01T12:56:17;18.16;43.58
65707;SHT31;52423;43.512;5.220;2023-04-01T13:00:03;18.57;44.28
65707;SHT31;52423;43.512;5.220;2023-04-01T13:10:59;18.48;42.77
65707;SHT31;52423;43.512;5.220;2023-04-01T13:16:36;18.90;42.88
65707;SHT31;52423;43.512;5.220;2023-04-01T13:26:39;19.00;42.69
65707;SHT31;52423;43.512;5.220;2023-04-01T13:31:42;18.60;43.18
65707;SHT31;52423;43.512;5.220;2023-04-01T13:34:47;18.90;45.07
65707;SHT31;52423;43.512;5.220;2023-04-01T13:37:32;18.87;43.64
65707;SHT31;52423;43.512;5.220;2023-04-01T13:40:36;19.00;42.82
65707;SHT31;52423;43.512;5.220;2023-04-01T13:46:08;18.86;42.72
65707;SHT31;52423;43.512;5.220;2023-04-01T13:51:21;19.44;42.52
65707;SHT31;52423;43.512;5.220;2023-04-01T13:59:50;19.44;42.63
65707;SHT31;52423;43.512;5.220;2023-04-01T14:02:51;19.54;41.80
65707;SHT31;52423;43.512;5.220;2023-04-01T14:05:44;19.54;41.25
65707;SHT31;52423;43.512;5.220;2023-04-01T14:14:01;18.87;42.79
65707;SHT31;52423;43.512;5.220;2023-04-01T14:25:06;19.64;39.31
65707;SHT31;52423;43.512;5.220;2023-04-01T14:39:12;19.15;37.22
65707;SHT31;52423;43.512;5.220;2023-04-01T14:41:57;18.90;37.00
65707;SHT31;52423;43.512;5.220;2023-04-01T14:49:49;19.31;35.99
65707;SHT31;52423;43.512;5.220;2023-04-01T14:52:24;19.45;35.55
65707;SHT31;52423;43.512;5.220;2023-04-01T14:54:52;19.55;35.11
65707;SHT31;52423;43.512;5.220;2023-04-01T14:57:27;19.45;34.93
65707;SHT31;52423;43.512;5.220;2023-04-01T15:00:13;19.32;36.26
65707;SHT31;52423;43.512;5.220;2023-04-01T15:05:30;19.55;36.19
65707;SHT31;52423;43.512;5.220;2023-04-01T15:08:26;19.51;35.16
65707;SHT31;52423;43.512;5.220;2023-04-01T15:16:30;18.56;37.84
65707;SHT31;52423;43.512;5.220;2023-04-01T15:19:14;18.59;39.09
65707;SHT31;52423;43.512;5.220;2023-04-01T15:24:34;18.35;42.55
65707;SHT31;52423;43.512;5.220;2023-04-01T15:30:07;18.32;43.66
65707;SHT31;52423;43.512;5.220;2023-04-01T15:35:38;17.98;45.23
65707;SHT31;52423;43.512;5.220;2023-04-01T15:40:49;17.70;46.14
65707;SHT31;52423;43.512;5.220;2023-04-01T15:51:22;16.76;44.50
65707;SHT31;52423;43.512;5.220;2023-04-01T15:54:01;16.65;43.94
65707;SHT31;52423;43.512;5.220;2023-04-01T15:59:22;16.57;44.38
65707;SHT31;52423;43.512;5.220;2023-04-01T16:04:48;16.28;43.74
65707;SHT31;52423;43.512;5.220;2023-04-01T16:07:48;16.21;45.53
65707;SHT31;52423;43.512;5.220;2023-04-01T16:14:09;16.25;47.83
65707;SHT31;52423;43.512;5.220;2023-04-01T16:21:52;16.06;47.98
65707;SHT31;52423;43.512;5.220;2023-04-01T16:32:43;16.00;46.73
65707;SHT31;52423;43.512;5.220;2023-04-01T16:35:25;15.87;45.55
65707;SHT31;52423;43.512;5.220;2023-04-01T16:38:15;15.66;45.45
65707;SHT31;52423;43.512;5.220;2023-04-01T16:46:31;15.39;46.17
65707;SHT31;52423;43.512;5.220;2023-04-01T16:49:24;15.28;45.72
65707;SHT31;52423;43.512;5.220;2023-04-01T16:52:29;15.15;45.24
65707;SHT31;52423;43.512;5.220;2023-04-01T16:59:35;15.04;45.77
65707;SHT31;52423;43.512;5.220;2023-04-01T17:05:00;14.88;46.84
65707;SHT31;52423;43.512;5.220;2023-04-01T17:16:29;14.88;48.15
65707;SHT31;52423;43.512;5.220;2023-04-01T17:21:49;14.83;49.34
65707;SHT31;52423;43.512;5.220;2023-04-01T17:24:47;14.84;49.34
65707;SHT31;52423;43.512;5.220;2023-04-01T17:27:57;14.76;49.73
65707;SHT31;52423;43.512;5.220;2023-04-01T17:30:29;14.74;50.03
65707;SHT31;52423;43.512;5.220;2023-04-01T17:38:34;14.73;50.37
65707;SHT31;52423;43.512;5.220;2023-04-01T17:41:05;14.70;50.84
65707;SHT31;52423;43.512;5.220;2023-04-01T17:46:49;14.69;51.14
65707;SHT31;52423;43.512;5.220;2023-04-01T17:55:05;14.55;51.97
65707;SHT31;52423;43.512;5.220;2023-04-01T17:57:59;14.62;52.30
65707;SHT31;52423;43.512;5.220;2023-04-01T18:11:20;14.46;52.85
65707;SHT31;52423;43.512;5.220;2023-04-01T18:19:26;14.42;53.21
65707;SHT31;52423;43.512;5.220;2023-04-01T18:27:43;14.39;52.30
65707;SHT31;52423;43.512;5.220;2023-04-01T18:30:20;14.19;52.41
65707;SHT31;52423;43.512;5.220;2023-04-01T18:32:57;14.18;52.50
65707;SHT31;52423;43.512;5.220;2023-04-01T18:35:47;14.19;52.56
65707;SHT31;52423;43.512;5.220;2023-04-01T18:38:25;14.13;52.52
65707;SHT31;52423;43.512;5.220;2023-04-01T18:41:07;14.05;52.98
65707;SHT31;52423;43.512;5.220;2023-04-01T18:43:51;13.98;53.19
65707;SHT31;52423;43.512;5.220;2023-04-01T18:46:41;14.02;53.41
65707;SHT31;52423;43.512;5.220;2023-04-01T18:51:43;13.94;53.46
65707;SHT31;52423;43.512;5.220;2023-04-01T18:54:16;13.94;53.95
65707;SHT31;52423;43.512;5.220;2023-04-01T18:56:47;13.84;53.55
65707;SHT31;52423;43.512;5.220;2023-04-01T18:59:31;13.78;54.30
65707;SHT31;52423;43.512;5.220;2023-04-01T19:10:37;13.53;54.72
65707;SHT31;52423;43.512;5.220;2023-04-01T19:21:37;13.43;54.73
65707;SHT31;52423;43.512;5.220;2023-04-01T19:27:18;13.36;55.14
65707;SHT31;52423;43.512;5.220;2023-04-01T19:35:36;13.12;56.33
65707;SHT31;52423;43.512;5.220;2023-04-01T19:57:12;12.88;56.71
65707;SHT31;52423;43.512;5.220;2023-04-01T19:59:56;12.73;57.10
65707;SHT31;52423;43.512;5.220;2023-04-01T20:08:11;12.54;57.67
65707;SHT31;52423;43.512;5.220;2023-04-01T20:13:17;12.68;58.56
65707;SHT31;52423;43.512;5.220;2023-04-01T20:15:58;12.49;58.19
65707;SHT31;52423;43.512;5.220;2023-04-01T20:21:02;12.45;58.68
65707;SHT31;52423;43.512;5.220;2023-04-01T20:23:55;12.37;58.99
65707;SHT31;52423;43.512;5.220;2023-04-01T20:26:25;12.44;58.66
65707;SHT31;52423;43.512;5.220;2023-04-01T20:31:44;12.08;60.28
65707;SHT31;52423;43.512;5.220;2023-04-01T20:34:30;11.94;59.58
65707;SHT31;52423;43.512;5.220;2023-04-01T20:40:33;11.47;61.00
65707;SHT31;52423;43.512;5.220;2023-04-01T20:46:06;11.46;61.31
65707;SHT31;52423;43.512;5.220;2023-04-01T20:51:14;11.59;61.01
65707;SHT31;52423;43.512;5.220;2023-04-01T20:59:15;11.66;61.84
65707;SHT31;52423;43.512;5.220;2023-04-01T21:08:08;11.73;62.24
65707;SHT31;52423;43.512;5.220;2023-04-01T21:10:54;11.77;62.08
65707;SHT31;52423;43.512;5.220;2023-04-01T21:16:19;11.70;62.70
65707;SHT31;52423;43.512;5.220;2023-04-01T21:27:49;11.79;62.17
65707;SHT31;52423;43.512;5.220;2023-04-01T21:30:43;11.82;61.81
65707;SHT31;52423;43.512;5.220;2023-04-01T22:00:42;11.29;61.78
65707;SHT31;52423;43.512;5.220;2023-04-01T22:03:36;11.29;61.33
65707;SHT31;52423;43.512;5.220;2023-04-01T22:09:00;11.39;60.74
65707;SHT31;52423;43.512;5.220;2023-04-01T22:14:40;11.26;61.15
65707;SHT31;52423;43.512;5.220;2023-04-01T22:25:34;11.15;60.22
65707;SHT31;52423;43.512;5.220;2023-04-01T22:31:08;11.11;60.33
65707;SHT31;52423;43.512;5.220;2023-04-01T22:34:02;11.11;60.72
65707;SHT31;52423;43.512;5.220;2023-04-01T22:37:07;11.08;61.02
65707;SHT31;52423;43.512;5.220;2023-04-01T22:39:50;11.02;60.40
65707;SHT31;52423;43.512;5.220;2023-04-01T22:45:18;10.95;61.67
65707;SHT31;52423;43.512;5.220;2023-04-01T22:50:59;10.94;60.91
65707;SHT31;52423;43.512;5.220;2023-04-01T22:53:56;10.68;61.37
65707;SHT31;52423;43.512;5.220;2023-04-01T22:56:40;10.73;61.36
65707;SHT31;52423;43.512;5.220;2023-04-01T22:59:14;10.78;61.01
65707;SHT31;52423;43.512;5.220;2023-04-01T23:01:52;10.68;61.20
65707;SHT31;52423;43.512;5.220;2023-04-01T23:04:24;10.84;61.49
65707;SHT31;52423;43.512;5.220;2023-04-01T23:06:57;10.80;61.22
65707;SHT31;52423;43.512;5.220;2023-04-01T23:09:27;10.87;60.70
65707;SHT31;52423;43.512;5.220;2023-04-01T23:12:04;10.75;60.96
65707;SHT31;52423;43.512;5.220;2023-04-01T23:14:56;10.90;60.56
65707;SHT31;52423;43.512;5.220;2023-04-01T23:17:42;10.97;60.23
65707;SHT31;52423;43.512;5.220;2023-04-01T23:20:23;10.90;61.00
65707;SHT31;52423;43.512;5.220;2023-04-01T23:34:18;10.64;61.36
65707;SHT31;52423;43.512;5.220;2023-04-01T23:36:49;10.67;61.33
65707;SHT31;52423;43.512;5.220;2023-04-01T23:39:28;10.63;61.78
65707;SHT31;52423;43.512;5.220;2023-04-01T23:42:00;10.71;61.14
65707;SHT31;52423;43.512;5.220;2023-04-01T23:44:27;10.60;61.93
65707;SHT31;52423;43.512;5.220;2023-04-01T23:46:55;10.64;62.44
65707;SHT31;52423;43.512;5.220;2023-04-01T23:49:27;10.56;61.63
65707;SHT31;52423;43.512;5.220;2023-04-01T23:51:56;10.63;62.33
65707;SHT31;52423;43.512;5.220;2023-04-01T23:54:31;10.51;62.40
65707;SHT31;52423;43.512;5.220;2023-04-01T23:56:58;10.60;61.91
65707;SHT31;52423;43.512;5.220;2023-04-01T23:59:30;10.37;62.38
